Johnson Creek, Wisconsin
Current Conditions -  °F | °C
As of 2:35 PM on Friday 21 Nov 2014 (Local Time) from KRYV Reporting Station
Clear Clear  
Wind Chill: -6°   Ceiling: Unl
Heat Index: -1°   Visibility: 10mi
Dew Point: -14°   Wind: 10mph
Humidity: 37%   Direction: 200°SSW
Pressure: 30.27"   Gusts: NA
Location:  43.08°N, 88.77°W
Report Text: KRYV 212035Z AUTO 20009KT 10SM CLR M01/M14 A3027 RMK AO2 T10081139
Loading
Personal Weather Stations






























Interactive Weather Map New forecast layout! Learn more

10-Day Weather Forecast

Advertisements
Track Severe Weather on mobile